createdAt,value
2023-01-05T00:00:01.191Z,9.12
2023-01-05T00:01:01.168Z,9.11
2023-01-05T00:02:01.200Z,9.12
2023-01-05T00:03:01.128Z,9.11
2023-01-05T00:04:01.145Z,9.12
2023-01-05T00:05:01.117Z,9.11
2023-01-05T00:06:01.104Z,9.11
2023-01-05T00:07:01.073Z,9.11
2023-01-05T00:08:01.064Z,9.11
2023-01-05T00:09:01.053Z,9.09
2023-01-05T00:10:01.053Z,9.11
2023-01-05T00:11:01.020Z,9.09
2023-01-05T00:12:01.015Z,9.09
2023-01-05T00:13:00.994Z,9.09
2023-01-05T00:14:00.982Z,9.11
2023-01-05T00:15:00.968Z,9.09
2023-01-05T00:16:00.988Z,9.09
2023-01-05T00:17:00.999Z,9.11
2023-01-05T00:18:00.930Z,9.09
2023-01-05T00:19:00.914Z,9.09
2023-01-05T00:20:00.920Z,9.09
2023-01-05T00:21:00.885Z,9.09
2023-01-05T00:22:00.871Z,9.11
2023-01-05T00:23:00.861Z,9.11
2023-01-05T00:24:00.846Z,9.09
2023-01-05T00:25:03.516Z,9.11
2023-01-05T00:26:01.858Z,9.09
2023-01-05T00:27:00.814Z,9.11
2023-01-05T00:28:00.794Z,9.11
2023-01-05T00:29:00.792Z,9.09
2023-01-05T00:30:00.771Z,9.11
2023-01-05T00:31:00.752Z,9.09
2023-01-05T00:32:00.803Z,9.11
2023-01-05T00:33:00.743Z,9.09
2023-01-05T00:34:00.727Z,9.09
2023-01-05T00:35:00.720Z,9.09
2023-01-05T00:36:00.691Z,9.11
2023-01-05T00:37:00.680Z,9.09
2023-01-05T00:38:00.658Z,9.11
2023-01-05T00:39:00.645Z,9.08
2023-01-05T00:40:00.628Z,9.09
2023-01-05T00:41:00.619Z,9.11
2023-01-05T00:42:00.606Z,9.11
2023-01-05T00:43:00.602Z,9.11
2023-01-05T00:44:00.582Z,9.09
2023-01-05T00:45:00.596Z,9.09
2023-01-05T00:46:00.611Z,9.11
2023-01-05T00:47:00.547Z,9.09
2023-01-05T00:48:00.559Z,9.11
2023-01-05T00:49:00.526Z,9.08
2023-01-05T00:50:00.505Z,9.12
2023-01-05T00:51:00.496Z,9.11
2023-01-05T00:52:00.487Z,9.09
2023-01-05T00:53:00.460Z,9.09
2023-01-05T00:54:00.438Z,9.11
2023-01-05T00:55:00.439Z,9.09
2023-01-05T00:56:00.422Z,9.11
2023-01-05T00:57:00.404Z,9.11
2023-01-05T00:58:00.393Z,9.09
2023-01-05T00:59:00.386Z,9.11
2023-01-05T01:00:00.364Z,9.09
2023-01-05T01:01:00.495Z,9.12
2023-01-05T01:02:00.553Z,9.11
2023-01-05T01:03:00.471Z,9.09
2023-01-05T01:04:00.331Z,9.11
2023-01-05T01:05:00.298Z,9.09
2023-01-05T01:06:00.280Z,9.09
2023-01-05T01:07:00.269Z,9.08
2023-01-05T01:08:00.262Z,9.09
2023-01-05T01:09:00.243Z,9.11
2023-01-05T01:10:00.237Z,9.09
2023-01-05T01:11:00.219Z,9.11
2023-01-05T01:12:00.203Z,9.11
2023-01-05T01:13:00.191Z,9.09
2023-01-05T01:14:00.174Z,9.11
2023-01-05T01:15:00.159Z,9.11
2023-01-05T01:16:00.146Z,9.11
2023-01-05T01:17:00.262Z,9.11
2023-01-05T01:18:00.125Z,9.11
2023-01-05T01:19:04.985Z,9.11
2023-01-05T01:20:00.115Z,9.11
2023-01-05T01:21:00.100Z,9.12
2023-01-05T01:22:00.112Z,9.11
2023-01-05T01:23:00.074Z,9.12
2023-01-05T01:24:00.054Z,9.09
2023-01-05T01:25:00.036Z,9.09
2023-01-05T01:26:00.022Z,9.11
2023-01-05T01:27:00.001Z,9.09
2023-01-05T01:27:59.988Z,9.09
2023-01-05T01:28:59.977Z,9.11
2023-01-05T01:29:59.959Z,9.11
2023-01-05T01:31:00.005Z,9.11
2023-01-05T01:31:59.933Z,9.11
2023-01-05T01:32:59.920Z,9.11
2023-01-05T01:33:59.905Z,9.11
2023-01-05T01:34:59.900Z,9.11
2023-01-05T01:35:59.910Z,9.09
2023-01-05T01:36:59.866Z,9.12
2023-01-05T01:37:59.854Z,9.11
2023-01-05T01:38:59.841Z,9.11
2023-01-05T01:39:59.868Z,9.11
2023-01-05T01:40:59.812Z,9.12
2023-01-05T01:41:59.797Z,9.11
2023-01-05T01:42:59.792Z,9.12
2023-01-05T01:43:59.772Z,9.11
2023-01-05T01:44:59.760Z,9.12
2023-01-05T01:45:59.848Z,9.11
2023-01-05T01:46:59.731Z,9.11
2023-01-05T01:47:59.722Z,9.11
2023-01-05T01:48:59.712Z,9.11
2023-01-05T01:49:59.692Z,9.11
2023-01-05T01:51:04.760Z,9.12
2023-01-05T01:52:00.730Z,9.11
2023-01-05T01:52:59.654Z,9.11
2023-01-05T01:53:59.651Z,9.11
2023-01-05T01:54:59.624Z,9.12
2023-01-05T01:55:59.613Z,9.11
2023-01-05T01:56:59.608Z,9.12
2023-01-05T01:57:59.589Z,9.12
2023-01-05T01:58:59.573Z,9.12
2023-01-05T01:59:59.557Z,9.12
2023-01-05T02:00:59.616Z,9.12
2023-01-05T02:01:59.688Z,9.12
2023-01-05T02:02:59.518Z,9.12
2023-01-05T02:03:59.585Z,9.12
2023-01-05T02:04:59.546Z,9.11
2023-01-05T02:05:59.476Z,9.11
2023-01-05T02:06:59.462Z,9.12
2023-01-05T02:07:59.474Z,9.12
2023-01-05T02:08:59.436Z,9.12
2023-01-05T02:09:59.422Z,9.11
2023-01-05T02:10:59.418Z,9.12
2023-01-05T02:11:59.413Z,9.11
2023-01-05T02:12:59.384Z,9.12
2023-01-05T02:13:59.372Z,9.12
2023-01-05T02:14:59.356Z,9.14
2023-01-05T02:15:59.343Z,9.12
2023-01-05T02:16:59.451Z,9.12
2023-01-05T02:17:59.316Z,9.12
2023-01-05T02:18:59.303Z,9.12
2023-01-05T02:19:59.287Z,9.12
2023-01-05T02:20:59.278Z,9.11
2023-01-05T02:21:59.262Z,9.11
2023-01-05T02:22:59.300Z,9.11
2023-01-05T02:23:59.258Z,9.12
2023-01-05T02:24:59.223Z,9.11
2023-01-05T02:25:59.209Z,9.11
2023-01-05T02:26:59.209Z,9.11
2023-01-05T02:27:59.205Z,9.11
2023-01-05T02:28:59.175Z,9.11
2023-01-05T02:29:59.157Z,9.09
2023-01-05T02:30:59.205Z,9.11
2023-01-05T02:31:59.131Z,9.09
2023-01-05T02:32:59.119Z,9.09
2023-01-05T02:33:59.107Z,9.12
2023-01-05T02:34:59.089Z,9.11
2023-01-05T02:35:59.079Z,9.11
2023-01-05T02:36:59.064Z,9.11
2023-01-05T02:37:59.047Z,9.11
2023-01-05T02:38:59.036Z,9.11
2023-01-05T02:39:59.045Z,9.09
2023-01-05T02:40:59.010Z,9.11
2023-01-05T02:41:58.994Z,9.11
2023-01-05T02:42:58.981Z,9.11
2023-01-05T02:43:58.965Z,9.12
2023-01-05T02:44:58.959Z,9.11
2023-01-05T02:45:58.992Z,9.11
2023-01-05T02:46:58.929Z,9.12
2023-01-05T02:47:58.916Z,9.12
2023-01-05T02:48:58.907Z,9.11
2023-01-05T02:49:58.919Z,9.11
2023-01-05T02:50:58.877Z,9.11
2023-01-05T02:51:58.859Z,9.12
2023-01-05T02:52:58.847Z,9.11
2023-01-05T02:53:58.832Z,9.12
2023-01-05T02:54:58.819Z,9.11
2023-01-05T02:55:58.846Z,9.12
2023-01-05T02:56:58.798Z,9.11
2023-01-05T02:57:58.778Z,9.11
2023-01-05T02:58:58.767Z,9.12
2023-01-05T02:59:58.755Z,9.12
2023-01-05T03:00:58.785Z,9.11
2023-01-05T03:01:58.865Z,9.09
2023-01-05T03:02:58.935Z,9.11
2023-01-05T03:03:58.705Z,9.12
2023-01-05T03:04:58.684Z,9.11
2023-01-05T03:05:58.675Z,9.11
2023-01-05T03:06:58.679Z,9.11
2023-01-05T03:07:58.644Z,9.09
2023-01-05T03:08:58.653Z,9.11
2023-01-05T03:09:58.618Z,9.12
2023-01-05T03:10:58.616Z,9.11
2023-01-05T03:11:58.629Z,9.12
2023-01-05T03:12:58.578Z,9.11
2023-01-05T03:13:58.579Z,9.12
2023-01-05T03:14:58.552Z,9.11
2023-01-05T03:15:58.643Z,9.09
2023-01-05T03:16:58.524Z,9.11
2023-01-05T03:17:58.509Z,9.12
2023-01-05T03:18:58.501Z,9.09
2023-01-05T03:19:58.506Z,9.11
2023-01-05T03:20:58.474Z,9.11
2023-01-05T03:21:58.463Z,9.11
2023-01-05T03:22:58.446Z,9.12
2023-01-05T03:23:58.431Z,9.12
2023-01-05T03:24:58.418Z,9.11
2023-01-05T03:25:58.408Z,9.11
2023-01-05T03:26:58.392Z,9.12
2023-01-05T03:27:58.400Z,9.11
2023-01-05T03:28:58.364Z,9.12
2023-01-05T03:29:58.352Z,9.11
2023-01-05T03:30:58.440Z,9.11
2023-01-05T03:31:58.322Z,9.11
2023-01-05T03:32:58.312Z,9.12
2023-01-05T03:33:58.308Z,9.11
2023-01-05T03:34:58.284Z,9.11
2023-01-05T03:35:58.271Z,9.11
2023-01-05T03:36:58.256Z,9.11
2023-01-05T03:38:04.250Z,9.12
2023-01-05T03:38:58.236Z,9.12
2023-01-05T03:39:58.216Z,9.09
2023-01-05T03:40:58.201Z,9.12
2023-01-05T03:41:58.189Z,9.11
2023-01-05T03:42:58.177Z,9.11
2023-01-05T03:43:58.190Z,9.11
2023-01-05T03:44:58.148Z,9.09
2023-01-05T03:45:58.258Z,9.12
2023-01-05T03:46:58.124Z,9.11
2023-01-05T03:47:58.111Z,9.12
2023-01-05T03:48:58.095Z,9.11
2023-01-05T03:49:58.086Z,9.11
2023-01-05T03:50:58.066Z,9.11
2023-01-05T03:51:58.081Z,9.11
2023-01-05T03:52:58.043Z,9.11
2023-01-05T03:53:58.031Z,9.11
2023-01-05T03:54:58.015Z,9.12
2023-01-05T03:55:58.003Z,9.11
2023-01-05T03:56:57.989Z,9.11
2023-01-05T03:57:57.988Z,9.11
2023-01-05T03:58:57.966Z,9.12
2023-01-05T03:59:57.981Z,9.11
2023-01-05T04:00:57.936Z,9.12
2023-01-05T04:01:58.091Z,9.11
2023-01-05T04:02:58.091Z,9.12
2023-01-05T04:03:57.943Z,9.12
2023-01-05T04:04:57.882Z,9.12
2023-01-05T04:05:57.874Z,9.12
2023-01-05T04:06:57.853Z,9.12
2023-01-05T04:07:57.843Z,9.12
2023-01-05T04:08:57.834Z,9.11
2023-01-05T04:09:57.816Z,9.11
2023-01-05T04:10:57.800Z,9.11
2023-01-05T04:11:57.788Z,9.11
2023-01-05T04:12:57.774Z,9.11
2023-01-05T04:13:57.765Z,9.12
2023-01-05T04:14:57.746Z,9.09
2023-01-05T04:15:57.843Z,9.09
2023-01-05T04:16:57.723Z,9.09
2023-01-05T04:17:57.710Z,9.12
2023-01-05T04:18:57.693Z,9.11
2023-01-05T04:19:57.682Z,9.11
2023-01-05T04:20:57.669Z,9.11
2023-01-05T04:21:57.671Z,9.11
2023-01-05T04:22:57.647Z,9.09
2023-01-05T04:23:57.629Z,9.11
2023-01-05T04:24:57.612Z,9.11
2023-01-05T04:25:57.602Z,9.11
2023-01-05T04:26:57.594Z,9.11
2023-01-05T04:27:57.574Z,9.11
2023-01-05T04:28:57.562Z,9.09
2023-01-05T04:29:57.554Z,9.11
2023-01-05T04:30:57.564Z,9.09
2023-01-05T04:31:57.547Z,9.11
2023-01-05T04:32:57.508Z,9.12
2023-01-05T04:33:57.494Z,9.09
2023-01-05T04:34:57.484Z,9.12
2023-01-05T04:35:57.465Z,9.11
2023-01-05T04:36:57.456Z,9.11
2023-01-05T04:37:57.450Z,9.11
2023-01-05T04:38:57.433Z,9.11
2023-01-05T04:39:57.414Z,9.12
2023-01-05T04:40:57.401Z,9.11
2023-01-05T04:41:57.387Z,9.11
2023-01-05T04:42:57.376Z,9.11
2023-01-05T04:43:57.358Z,9.11
2023-01-05T04:44:57.343Z,9.11
2023-01-05T04:45:57.432Z,9.09
2023-01-05T04:46:57.353Z,9.09
2023-01-05T04:47:57.328Z,9.11
2023-01-05T04:48:57.289Z,9.09
2023-01-05T04:49:57.279Z,9.11
2023-01-05T04:50:57.269Z,9.09
2023-01-05T04:51:57.249Z,9.11
2023-01-05T04:52:57.238Z,9.11
2023-01-05T04:53:57.227Z,9.09
2023-01-05T04:54:57.217Z,9.09
2023-01-05T04:55:57.198Z,9.09
2023-01-05T04:56:57.188Z,9.11
2023-01-05T04:57:57.170Z,9.09
2023-01-05T04:58:57.157Z,9.11
2023-01-05T04:59:57.145Z,9.11
2023-01-05T05:00:57.133Z,9.11
2023-01-05T05:01:57.203Z,9.12
2023-01-05T05:02:57.264Z,9.11
2023-01-05T05:03:57.193Z,9.12
2023-01-05T05:04:57.075Z,9.12
2023-01-05T05:05:57.065Z,9.11
2023-01-05T05:06:57.050Z,9.11
2023-01-05T05:07:57.047Z,9.12
2023-01-05T05:08:57.022Z,9.09
2023-01-05T05:09:57.016Z,9.12
2023-01-05T05:10:56.997Z,9.12
2023-01-05T05:11:56.984Z,9.11
2023-01-05T05:12:56.969Z,9.11
2023-01-05T05:13:56.966Z,9.14
2023-01-05T05:14:56.948Z,9.12
2023-01-05T05:15:56.980Z,9.12
2023-01-05T05:16:56.924Z,9.12
2023-01-05T05:17:56.917Z,9.11
2023-01-05T05:18:56.890Z,9.11
2023-01-05T05:19:56.905Z,9.12
2023-01-05T05:20:56.865Z,9.12
2023-01-05T05:21:56.850Z,9.11
2023-01-05T05:22:56.835Z,9.11
2023-01-05T05:23:56.824Z,9.11
2023-01-05T05:24:56.812Z,9.12
2023-01-05T05:25:56.798Z,9.11
2023-01-05T05:26:56.781Z,9.11
2023-01-05T05:27:56.767Z,9.11
2023-01-05T05:28:56.754Z,9.11
2023-01-05T05:29:56.756Z,9.11
2023-01-05T05:30:56.849Z,9.11
2023-01-05T05:31:56.725Z,9.09
2023-01-05T05:32:56.702Z,9.11
2023-01-05T05:33:56.739Z,9.11
2023-01-05T05:34:56.677Z,9.09
2023-01-05T05:35:56.685Z,9.11
2023-01-05T05:36:56.647Z,9.11
2023-01-05T05:37:57.072Z,9.12
2023-01-05T05:38:56.618Z,9.09
2023-01-05T05:39:56.608Z,9.11
2023-01-05T05:40:56.593Z,9.12
2023-01-05T05:41:56.581Z,9.11
2023-01-05T05:42:56.565Z,9.12
2023-01-05T05:43:56.556Z,9.12
2023-01-05T05:44:56.538Z,9.11
2023-01-05T05:46:02.532Z,9.12
2023-01-05T05:46:56.547Z,9.11
2023-01-05T05:47:56.503Z,9.11
2023-01-05T05:48:56.489Z,9.11
2023-01-05T05:49:56.483Z,9.12
2023-01-05T05:50:56.463Z,9.11
2023-01-05T05:51:56.481Z,9.11
2023-01-05T05:52:56.433Z,9.11
2023-01-05T05:53:56.420Z,9.11
2023-01-05T05:54:56.418Z,9.11
2023-01-05T05:55:56.394Z,9.11
2023-01-05T05:56:56.380Z,9.09
2023-01-05T05:57:56.365Z,9.11
2023-01-05T05:59:01.314Z,9.11
2023-01-05T05:59:56.342Z,9.12
2023-01-05T06:00:56.325Z,9.12
2023-01-05T06:01:56.465Z,9.11
2023-01-05T06:02:56.436Z,9.11
2023-01-05T06:03:56.297Z,9.11
2023-01-05T06:04:56.272Z,9.12
2023-01-05T06:05:56.257Z,9.11
2023-01-05T06:06:56.284Z,9.12
2023-01-05T06:07:56.262Z,9.09
2023-01-05T06:08:56.216Z,9.12
2023-01-05T06:09:56.208Z,9.11
2023-01-05T06:10:56.190Z,9.12
2023-01-05T06:11:56.176Z,9.11
2023-01-05T06:12:56.163Z,9.12
2023-01-05T06:13:56.158Z,9.12
2023-01-05T06:14:56.136Z,9.11
2023-01-05T06:15:56.208Z,9.12
2023-01-05T06:16:56.123Z,9.11
2023-01-05T06:17:56.098Z,9.12
2023-01-05T06:18:56.082Z,9.09
2023-01-05T06:19:56.082Z,9.09
2023-01-05T06:21:01.350Z,9.12
2023-01-05T06:21:56.049Z,9.11
2023-01-05T06:22:56.028Z,9.11
2023-01-05T06:23:56.036Z,9.11
2023-01-05T06:24:56.001Z,9.09
2023-01-05T06:25:56.005Z,9.11
2023-01-05T06:26:55.975Z,9.11
2023-01-05T06:27:55.962Z,9.11
2023-01-05T06:28:55.945Z,9.11
2023-01-05T06:29:55.962Z,9.11
2023-01-05T06:30:55.930Z,9.11
2023-01-05T06:31:55.976Z,9.11
2023-01-05T06:32:55.904Z,9.11
2023-01-05T06:33:55.881Z,9.11
2023-01-05T06:34:55.868Z,9.12
2023-01-05T06:35:55.856Z,9.11
2023-01-05T06:37:01.845Z,9.11
2023-01-05T06:37:56.868Z,9.12
2023-01-05T06:38:55.829Z,9.11
2023-01-05T06:39:55.827Z,9.11
2023-01-05T06:40:55.797Z,9.11
2023-01-05T06:41:55.777Z,9.11
2023-01-05T06:42:55.763Z,9.11
2023-01-05T06:43:55.746Z,9.11
2023-01-05T06:44:55.733Z,9.11
2023-01-05T06:45:55.767Z,9.11
2023-01-05T06:46:55.712Z,9.11
2023-01-05T06:47:55.703Z,9.12
2023-01-05T06:48:55.686Z,9.09
2023-01-05T06:49:55.670Z,9.11
2023-01-05T06:50:55.661Z,9.11
2023-01-05T06:51:55.641Z,9.11
2023-01-05T06:52:55.657Z,9.11
2023-01-05T06:53:55.617Z,9.11
2023-01-05T06:54:55.599Z,9.12
2023-01-05T06:55:55.616Z,9.11
2023-01-05T06:56:55.572Z,9.12
2023-01-05T06:58:00.486Z,9.12
2023-01-05T06:58:55.547Z,9.11
2023-01-05T06:59:55.535Z,9.12
2023-01-05T07:00:55.576Z,9.11
2023-01-05T07:01:55.614Z,9.11
2023-01-05T07:02:55.508Z,9.11
2023-01-05T07:03:55.549Z,9.12
2023-01-05T07:04:55.464Z,9.11
2023-01-05T07:05:55.474Z,9.09
2023-01-05T07:06:55.434Z,9.11
2023-01-05T07:07:55.424Z,9.09
2023-01-05T07:08:55.412Z,9.12
2023-01-05T07:09:55.409Z,9.12
2023-01-05T07:10:55.391Z,9.12
2023-01-05T07:11:55.413Z,9.11
2023-01-05T07:12:55.360Z,9.11
2023-01-05T07:13:55.354Z,9.11
2023-01-05T07:14:57.642Z,9.11
2023-01-05T07:15:55.401Z,9.12
2023-01-05T07:16:55.299Z,9.12
2023-01-05T07:17:55.289Z,9.12
2023-01-05T07:18:55.277Z,9.11
2023-01-05T07:19:55.261Z,9.12
2023-01-05T07:20:55.253Z,9.12
2023-01-05T07:21:57.090Z,9.12
2023-01-05T07:22:55.224Z,9.12
2023-01-05T07:23:55.210Z,9.12
2023-01-05T07:24:55.201Z,9.12
2023-01-05T07:25:55.182Z,9.14
2023-01-05T07:26:55.179Z,9.12
2023-01-05T07:27:55.183Z,9.12
2023-01-05T07:28:55.144Z,9.11
2023-01-05T07:29:55.131Z,9.12
2023-01-05T07:30:55.112Z,9.11
2023-01-05T07:31:55.135Z,9.11
2023-01-05T07:32:55.087Z,9.11
2023-01-05T07:33:55.075Z,9.12
2023-01-05T07:34:56.083Z,9.12
2023-01-05T07:35:55.045Z,9.12
2023-01-05T07:36:55.034Z,9.09
2023-01-05T07:37:55.027Z,9.11
2023-01-05T07:38:57.651Z,9.09
2023-01-05T07:39:55.002Z,9.12
2023-01-05T07:40:54.980Z,9.12
2023-01-05T07:41:54.994Z,9.11
2023-01-05T07:42:54.955Z,9.12
2023-01-05T07:43:55.085Z,9.12
2023-01-05T07:44:54.928Z,9.11
2023-01-05T07:45:54.999Z,9.11
2023-01-05T07:46:54.913Z,9.11
2023-01-05T07:47:54.885Z,9.09
2023-01-05T07:48:54.876Z,9.11
2023-01-05T07:49:54.863Z,9.09
2023-01-05T07:50:54.846Z,9.11
2023-01-05T07:51:54.832Z,9.11
2023-01-05T07:52:54.822Z,9.11
2023-01-05T07:53:54.806Z,9.12
2023-01-05T07:54:54.793Z,9.12
2023-01-05T07:55:54.781Z,9.12
2023-01-05T07:56:54.765Z,9.11
2023-01-05T07:57:54.777Z,9.11
2023-01-05T07:58:54.744Z,9.12
2023-01-05T07:59:54.750Z,9.11
2023-01-05T08:00:54.798Z,9.11
2023-01-05T08:01:54.913Z,9.11
2023-01-05T08:02:54.690Z,9.11
2023-01-05T08:03:54.725Z,9.11
2023-01-05T08:04:54.659Z,9.11
2023-01-05T08:05:54.643Z,9.12
2023-01-05T08:06:54.633Z,9.12
2023-01-05T08:07:54.617Z,9.11
2023-01-05T08:08:54.606Z,9.11
2023-01-05T08:09:54.590Z,9.11
2023-01-05T08:10:54.579Z,9.11
2023-01-05T08:11:54.563Z,9.11
2023-01-05T08:12:54.557Z,9.11
2023-01-05T08:13:54.544Z,9.11
2023-01-05T08:14:54.528Z,9.11
2023-01-05T08:15:54.538Z,9.14
2023-01-05T08:16:54.573Z,9.11
2023-01-05T08:17:54.481Z,9.12
2023-01-05T08:18:54.469Z,9.11
2023-01-05T08:19:54.458Z,9.12
2023-01-05T08:20:54.445Z,9.14
2023-01-05T08:21:54.428Z,9.11
2023-01-05T08:22:54.416Z,9.12
2023-01-05T08:23:54.407Z,9.11
2023-01-05T08:24:54.390Z,9.12
2023-01-05T08:25:54.381Z,9.11
2023-01-05T08:26:54.459Z,9.11
2023-01-05T08:27:54.353Z,9.11
2023-01-05T08:28:54.336Z,9.11
2023-01-05T08:29:54.321Z,9.12
2023-01-05T08:30:54.313Z,9.12
2023-01-05T08:31:54.472Z,9.12
2023-01-05T08:32:54.283Z,9.12
2023-01-05T08:33:54.269Z,9.12
2023-01-05T08:34:55.733Z,9.12
2023-01-05T08:35:54.241Z,9.12
2023-01-05T08:36:54.237Z,9.11
2023-01-05T08:37:54.221Z,9.11
2023-01-05T08:38:54.215Z,9.11
2023-01-05T08:39:54.185Z,9.12
2023-01-05T08:40:54.178Z,9.12
2023-01-05T08:42:00.428Z,9.12
2023-01-05T08:42:55.187Z,9.12
2023-01-05T08:43:54.148Z,9.14
2023-01-05T08:44:54.125Z,9.12
2023-01-05T08:45:54.174Z,9.12
2023-01-05T08:46:54.095Z,9.14
2023-01-05T08:47:54.107Z,9.14
2023-01-05T08:48:54.066Z,9.14
2023-01-05T08:49:54.054Z,9.14
2023-01-05T08:50:54.040Z,9.15
2023-01-05T08:51:54.041Z,9.14
2023-01-05T08:52:54.011Z,9.17
2023-01-05T08:53:54.058Z,9.14
2023-01-05T08:54:54.025Z,9.14
2023-01-05T08:55:53.984Z,9.14
2023-01-05T08:56:53.973Z,9.15
2023-01-05T08:57:53.957Z,9.14
2023-01-05T08:58:53.937Z,9.14
2023-01-05T08:59:53.920Z,9.17
2023-01-05T09:00:53.950Z,9.15
2023-01-05T09:01:54.099Z,9.17
2023-01-05T09:02:53.984Z,9.17
2023-01-05T09:03:53.890Z,9.17
2023-01-05T09:04:53.859Z,9.15
2023-01-05T09:05:53.841Z,9.15
2023-01-05T09:06:53.828Z,9.15
2023-01-05T09:07:53.814Z,9.15
2023-01-05T09:08:53.802Z,9.17
2023-01-05T09:09:53.788Z,9.14
2023-01-05T09:10:53.773Z,9.17
2023-01-05T09:11:53.759Z,9.17
2023-01-05T09:12:53.757Z,9.17
2023-01-05T09:13:53.748Z,9.17
2023-01-05T09:14:53.733Z,9.17
2023-01-05T09:15:53.705Z,9.17
2023-01-05T09:17:09.575Z,9.17
2023-01-05T09:17:54.799Z,9.17
2023-01-05T09:18:53.667Z,9.17
2023-01-05T09:19:53.677Z,9.15
2023-01-05T09:20:53.639Z,9.15
2023-01-05T09:21:53.645Z,9.19
2023-01-05T09:22:53.629Z,9.17
2023-01-05T09:23:53.598Z,9.19
2023-01-05T09:24:53.587Z,9.17
2023-01-05T09:25:53.575Z,9.17
2023-01-05T09:26:53.564Z,9.17
2023-01-05T09:27:53.546Z,9.17
2023-01-05T09:28:53.530Z,9.19
2023-01-05T09:29:53.516Z,9.19
2023-01-05T09:30:53.576Z,9.17
2023-01-05T09:31:53.493Z,9.20
2023-01-05T09:32:53.478Z,9.19
2023-01-05T09:33:53.464Z,9.17
2023-01-05T09:34:53.453Z,9.19
2023-01-05T09:35:53.562Z,9.19
2023-01-05T09:36:53.428Z,9.19
2023-01-05T09:37:53.413Z,9.19
2023-01-05T09:38:53.397Z,9.20
2023-01-05T09:39:53.381Z,9.19
2023-01-05T09:40:53.370Z,9.19
2023-01-05T09:41:53.357Z,9.20
2023-01-05T09:42:53.344Z,9.20
2023-01-05T09:43:53.361Z,9.22
2023-01-05T09:44:58.620Z,9.20
2023-01-05T09:45:53.344Z,9.23
2023-01-05T09:46:53.289Z,9.20
2023-01-05T09:47:53.274Z,9.22
2023-01-05T09:48:53.263Z,9.22
2023-01-05T09:49:53.252Z,9.23
2023-01-05T09:50:53.235Z,9.22
2023-01-05T09:51:53.342Z,9.22
2023-01-05T09:52:53.209Z,9.24
2023-01-05T09:53:53.244Z,9.23
2023-01-05T09:54:53.181Z,9.23
2023-01-05T09:55:53.166Z,9.23
2023-01-05T09:57:10.290Z,9.23
2023-01-05T09:57:54.179Z,9.24
2023-01-05T09:58:53.128Z,9.23
2023-01-05T09:59:53.128Z,9.23
2023-01-05T10:00:53.103Z,9.22
2023-01-05T10:01:53.146Z,9.23
2023-01-05T10:02:53.100Z,9.22
2023-01-05T10:04:03.630Z,9.24
2023-01-05T10:04:54.413Z,9.22
2023-01-05T10:05:53.084Z,9.24
2023-01-05T10:06:53.022Z,9.23
2023-01-05T10:07:53.131Z,9.24
2023-01-05T10:08:53.012Z,9.23
2023-01-05T10:09:52.980Z,9.22
2023-01-05T10:10:52.967Z,9.23
2023-01-05T10:11:52.956Z,9.22
2023-01-05T10:12:52.943Z,9.23
2023-01-05T10:13:52.937Z,9.23
2023-01-05T10:14:52.915Z,9.23
2023-01-05T10:15:52.936Z,9.23
2023-01-05T10:16:57.831Z,9.24
2023-01-05T10:17:53.913Z,9.24
2023-01-05T10:18:52.861Z,9.24
2023-01-05T10:19:52.848Z,9.23
2023-01-05T10:20:52.835Z,9.24
2023-01-05T10:21:52.819Z,9.24
2023-01-05T10:22:52.818Z,9.24
2023-01-05T10:23:52.912Z,9.26
2023-01-05T10:24:52.783Z,9.27
2023-01-05T10:25:52.768Z,9.24
2023-01-05T10:27:23.517Z,9.26
2023-01-05T10:27:56.923Z,9.24
2023-01-05T10:28:52.737Z,9.26
2023-01-05T10:29:52.713Z,9.24
2023-01-05T10:30:52.726Z,9.26
2023-01-05T10:31:52.688Z,9.26
2023-01-05T10:32:52.679Z,9.26
2023-01-05T10:33:56.806Z,9.27
2023-01-05T10:34:53.687Z,9.27
2023-01-05T10:36:01.826Z,9.27
2023-01-05T10:37:09.898Z,9.27
2023-01-05T10:37:53.651Z,9.27
2023-01-05T10:38:52.603Z,9.27
2023-01-05T10:39:56.510Z,9.27
2023-01-05T10:40:52.568Z,9.26
2023-01-05T10:41:52.554Z,9.27
2023-01-05T10:42:52.539Z,9.29
2023-01-05T10:43:52.528Z,9.29
2023-01-05T10:44:52.516Z,9.29
2023-01-05T10:46:28.561Z,9.29
2023-01-05T10:46:53.637Z,9.27
2023-01-05T10:47:52.493Z,9.29
2023-01-05T10:48:52.469Z,9.30
2023-01-05T10:49:52.446Z,9.30
2023-01-05T10:50:52.451Z,9.29
2023-01-05T10:51:56.575Z,9.29
2023-01-05T10:52:52.405Z,9.27
2023-01-05T10:53:52.393Z,9.26
2023-01-05T10:54:52.381Z,9.30
2023-01-05T10:55:52.387Z,9.26
2023-01-05T10:56:52.365Z,9.27
2023-01-05T10:57:52.339Z,9.26
2023-01-05T10:58:52.327Z,9.27
2023-01-05T10:59:52.330Z,9.27
2023-01-05T11:00:52.300Z,9.27
2023-01-05T11:01:52.504Z,9.29
2023-01-05T11:02:52.273Z,9.27
2023-01-05T11:04:53.319Z,9.29
2023-01-05T11:05:52.230Z,9.29
2023-01-05T11:06:52.222Z,9.30
2023-01-05T11:07:52.204Z,9.27
2023-01-05T11:08:52.191Z,9.30
2023-01-05T11:09:52.177Z,9.29
2023-01-05T11:10:52.165Z,9.30
2023-01-05T11:11:52.272Z,9.29
2023-01-05T11:12:52.142Z,9.29
2023-01-05T11:13:52.123Z,9.29
2023-01-05T11:14:57.840Z,9.30
2023-01-05T11:15:53.156Z,9.29
2023-01-05T11:16:52.088Z,9.27
2023-01-05T11:17:52.075Z,9.27
2023-01-05T11:18:52.059Z,9.29
2023-01-05T11:19:52.047Z,9.30
2023-01-05T11:20:52.055Z,9.29
2023-01-05T11:21:56.635Z,9.29
2023-01-05T11:22:53.044Z,9.30
2023-01-05T11:23:51.998Z,9.29
2023-01-05T11:24:51.976Z,9.30
2023-01-05T11:25:51.963Z,9.29
2023-01-05T11:26:51.952Z,9.29
2023-01-05T11:27:58.126Z,9.27
2023-01-05T11:28:52.964Z,9.29
2023-01-05T11:29:51.908Z,9.30
2023-01-05T11:30:52.018Z,9.30
2023-01-05T11:31:51.884Z,9.29
2023-01-05T11:32:51.869Z,9.30
2023-01-05T11:33:51.854Z,9.30
2023-01-05T11:34:51.863Z,9.31
2023-01-05T11:35:51.828Z,9.30
2023-01-05T11:36:51.818Z,9.30
2023-01-05T11:37:51.803Z,9.30
2023-01-05T11:38:51.794Z,9.30
2023-01-05T11:39:51.774Z,9.33
2023-01-05T11:40:51.767Z,9.31
2023-01-05T11:41:51.752Z,9.30
2023-01-05T11:42:51.737Z,9.29
2023-01-05T11:43:51.851Z,9.29
2023-01-05T11:44:51.710Z,9.30
2023-01-05T11:45:51.926Z,9.30
2023-01-05T11:46:51.813Z,9.31
2023-01-05T11:47:51.664Z,9.30
2023-01-05T11:48:51.659Z,9.30
2023-01-05T11:49:56.806Z,9.29
2023-01-05T11:50:51.641Z,9.29
2023-01-05T11:51:51.614Z,9.29
2023-01-05T11:52:51.610Z,9.30
2023-01-05T11:53:51.589Z,9.30
2023-01-05T11:54:51.596Z,9.31
2023-01-05T11:55:51.586Z,9.31
2023-01-05T11:56:51.557Z,9.31
2023-01-05T11:57:57.510Z,9.31
2023-01-05T11:58:52.561Z,9.31
2023-01-05T11:59:51.635Z,9.33
2023-01-05T12:00:51.599Z,9.30
2023-01-05T12:01:51.621Z,9.31
2023-01-05T12:02:51.502Z,9.31
2023-01-05T12:03:55.471Z,9.31
2023-01-05T12:04:52.579Z,9.31
2023-01-05T12:05:51.429Z,9.33
2023-01-05T12:06:51.415Z,9.31
2023-01-05T12:07:51.401Z,9.31
2023-01-05T12:08:51.443Z,9.31
2023-01-05T12:09:51.377Z,9.33
2023-01-05T12:10:51.358Z,9.31
2023-01-05T12:11:51.349Z,9.30
2023-01-05T12:12:51.332Z,9.31
2023-01-05T12:13:51.322Z,9.31
2023-01-05T12:14:51.307Z,9.31
2023-01-05T12:15:51.465Z,9.31
2023-01-05T12:16:51.408Z,9.30
2023-01-05T12:17:51.270Z,9.30
2023-01-05T12:18:51.266Z,9.29
2023-01-05T12:19:51.245Z,9.30
2023-01-05T12:20:51.236Z,9.30
2023-01-05T12:21:51.215Z,9.29
2023-01-05T12:22:51.201Z,9.29
2023-01-05T12:23:51.201Z,9.30
2023-01-05T12:24:51.184Z,9.30
2023-01-05T12:25:51.169Z,9.30
2023-01-05T12:26:51.159Z,9.29
2023-01-05T12:27:51.133Z,9.30
2023-01-05T12:29:21.313Z,9.29
2023-01-05T12:33:35.465Z,9.27
2023-01-05T12:34:13.074Z,9.29
2023-01-05T12:34:52.083Z,9.29
2023-01-05T12:35:51.036Z,9.26
2023-01-05T12:36:51.019Z,9.29
2023-01-05T12:37:51.012Z,9.27
2023-01-05T12:38:51.001Z,9.27
2023-01-05T12:39:50.973Z,9.27
2023-01-05T12:40:50.965Z,9.27
2023-01-05T12:41:50.945Z,9.26
2023-01-05T12:42:50.955Z,9.27
2023-01-05T12:43:50.919Z,9.24
2023-01-05T12:44:50.929Z,9.26
2023-01-05T12:45:50.909Z,9.27
2023-01-05T12:46:50.934Z,9.27
2023-01-05T12:47:50.983Z,9.26
2023-01-05T12:48:50.890Z,9.26
2023-01-05T12:49:50.842Z,9.26
2023-01-05T12:50:50.853Z,9.27
2023-01-05T12:51:50.828Z,9.27
2023-01-05T12:52:50.800Z,9.26
2023-01-05T12:53:50.787Z,9.26
2023-01-05T12:54:50.771Z,9.26
2023-01-05T12:55:50.758Z,9.26
2023-01-05T12:56:50.756Z,9.24
2023-01-05T12:57:50.750Z,9.26
2023-01-05T12:58:54.055Z,9.26
2023-01-05T12:59:50.702Z,9.26
2023-01-05T13:00:50.745Z,9.26
2023-01-05T13:01:50.825Z,9.26
2023-01-05T13:02:50.777Z,9.26
2023-01-05T13:03:50.778Z,9.26
2023-01-05T13:04:56.078Z,9.26
2023-01-05T13:05:50.622Z,9.26
2023-01-05T13:06:50.620Z,9.26
2023-01-05T13:07:50.600Z,9.27
2023-01-05T13:08:50.580Z,9.27
2023-01-05T13:09:50.571Z,9.26
2023-01-05T13:10:50.559Z,9.27
2023-01-05T13:11:50.543Z,9.26
2023-01-05T13:12:50.529Z,9.24
2023-01-05T13:13:50.516Z,9.26
2023-01-05T13:14:50.502Z,9.26
2023-01-05T13:15:50.509Z,9.26
2023-01-05T13:16:50.476Z,9.26
2023-01-05T13:17:50.463Z,9.24
2023-01-05T13:18:50.450Z,9.27
2023-01-05T13:19:50.563Z,9.27
2023-01-05T13:20:50.424Z,9.26
2023-01-05T13:21:50.405Z,9.27